首页
METAR-TAF:

METAR-TAF

机场 :

羅利達拉姆國際機場

罗利 / 达勒姆, 北卡罗来纳州, 美国

纬度: 35-52-14N, 经度: 078-47-11W, 海拔: 133米

当前天气观测

该预报发布于50分钟前的02:51 UTC
风速3节,风向西北
温度 15°C
湿度 63%
气压 1016 hPa
能見度: 16.1公里
天空无云

METAR: KRDU 170251Z 31003KT 10SM CLR 15/08 A2999 RMK AO2 SLP150 T01500078 51025 PNO $

时间: 23:41 (03:41 UTC)

预报

该预报发布于1小时和47分钟前的01:54 UTC
预报有效从17日的 02点(UTC)到 17日的 24点(UTC)
风速10节,风向西北,有时为17节阵风
能見度: 10公里
天空无云
从 17日的 0400点(UTC)
风速7节,风向西北
能見度: 10公里
天空无云
从 17日的 1330点(UTC)
风速12节,风向西北,有时为20节阵风
能見度: 10公里
天空无云
从 17日的 1900点(UTC)
风速5节,风向西转西北
能見度: 10公里
少量云层高于25000英尺

TAF: KRDU 170154Z 1702/1724 32010G17KT P6SM SKC FM170400 32007KT P6SM SKC FM171330 32012G20KT P6SM SKC FM171900 30005KT P6SM FEW250

超过4000个机场的气象观测和天气预报(METAR&TAF报告)。

可查询的气象台以黄色和红色小点在地图上表示。

将鼠标移到小点上方,可查看气象台名称。

然后点击查看天气观测和预报。

如需切换地图:点击带黑十字的绿色按钮放大地图;点击带横线的绿色按钮缩小地图;或者点击绿色箭头查看邻近地区的地图。


METAR-TAF: